Time;durP1;ratioP1;P1;durP2;ratioP2;P2;SDS_P1;SDS_P2;PMS_P1;PMS_P2;Temp;Humidity;BMP_temperature;BMP_pressure;BME280_temperature;BME280_humidity;BME280_pressure;Samples;Min_cycle;Max_cycle;Signal;HPM_P1;HPM_P2
2023/10/25 00:01:13;;;;;;;2.05;1.50;;;;;;;18.13;57.85;100215.69;5024076;28;20046;-40
2023/10/25 00:03:40;;;;;;;4.18;1.77;;;;;;;18.12;57.81;100214.84;5019755;28;20062;-40
2023/10/25 00:06:07;;;;;;;5.45;1.75;;;;;;;18.11;57.66;100223.91;5026171;28;20045;-40
2023/10/25 00:08:33;;;;;;;3.83;1.50;;;;;;;18.09;57.72;100217.91;5023489;28;20131;-41
2023/10/25 00:11:09;;;;;;;3.35;1.65;;;;;;;18.08;57.67;100218.03;5020860;28;20057;-41
2023/10/25 00:13:36;;;;;;;3.35;1.70;;;;;;;18.08;57.12;100218.88;5019537;28;20057;-41
2023/10/25 00:16:03;;;;;;;2.00;1.30;;;;;;;18.08;57.80;100215.34;5018762;28;20061;-41
2023/10/25 00:18:30;;;;;;;4.28;1.90;;;;;;;18.07;57.37;100211.84;5018377;28;20046;-41
2023/10/25 00:20:57;;;;;;;4.65;1.98;;;;;;;18.06;57.96;100214.72;5021502;28;20081;-40
2023/10/25 00:23:24;;;;;;;3.53;1.42;;;;;;;18.05;57.77;100213.88;5022017;28;20470;-41
2023/10/25 00:25:51;;;;;;;2.88;1.35;;;;;;;18.05;57.80;100213.88;5020432;28;20050;-41
2023/10/25 00:28:18;;;;;;;1.70;1.38;;;;;;;18.05;58.38;100205.84;5024302;28;20095;-41
2023/10/25 00:30:46;;;;;;;3.30;1.70;;;;;;;18.05;57.64;100207.66;5022807;28;20053;-41
2023/10/25 00:33:13;;;;;;;4.18;1.58;;;;;;;18.04;58.07;100201.44;5022978;28;20049;-41
2023/10/25 00:35:40;;;;;;;3.13;1.40;;;;;;;18.04;57.46;100193.41;5016786;28;20049;-41
2023/10/25 00:38:07;;;;;;;2.45;1.45;;;;;;;18.03;58.03;100198.94;5023565;28;20056;-41
2023/10/25 00:40:33;;;;;;;2.38;1.48;;;;;;;18.02;57.95;100200.81;5023680;28;20046;-41
2023/10/25 00:43:20;;;;;;;1.92;1.30;;;;;;;17.99;58.05;100199.28;5022521;28;20053;-41
2023/10/25 00:46:12;;;;;;;3.33;1.70;;;;;;;18.02;57.75;100197.28;5019993;28;20057;-41
2023/10/25 00:48:48;;;;;;;4.05;1.65;;;;;;;18.00;58.31;100197.44;5017527;28;20085;-41
2023/10/25 00:51:18;;;;;;;4.45;1.27;;;;;;;18.00;58.20;100195.59;5022744;28;20421;-40
2023/10/25 00:53:55;;;;;;;3.00;1.30;;;;;;;17.99;57.83;100198.44;5023974;28;20499;-40
2023/10/25 00:56:25;;;;;;;4.55;1.60;;;;;;;17.98;58.08;100191.41;5017500;28;20369;-41
2023/10/25 00:58:55;;;;;;;3.63;1.85;;;;;;;17.98;58.06;100186.88;5018277;28;20045;-40
2023/10/25 01:01:22;;;;;;;5.15;1.40;;;;;;;17.98;58.04;100197.63;5025139;28;20755;-41
2023/10/25 01:03:49;;;;;;;2.60;1.13;;;;;;;17.98;58.24;100192.25;5024389;28;20064;-41
2023/10/25 01:06:17;;;;;;;2.88;1.63;;;;;;;17.98;57.70;100191.41;5019501;28;20136;-41
2023/10/25 01:08:44;;;;;;;3.22;1.50;;;;;;;17.96;58.31;100188.88;5018709;28;20056;-41
2023/10/25 01:11:11;;;;;;;2.10;1.30;;;;;;;17.95;58.41;100186.38;5018035;28;20434;-40
2023/10/25 01:13:38;;;;;;;3.25;1.42;;;;;;;17.95;57.97;100181.03;5022211;28;20342;-40
2023/10/25 01:16:05;;;;;;;3.75;1.50;;;;;;;17.95;58.47;100173.81;5020313;28;20099;-41
2023/10/25 01:18:32;;;;;;;2.75;1.30;;;;;;;17.94;58.32;100174.00;5018453;28;20104;-41
2023/10/25 01:20:58;;;;;;;1.70;1.10;;;;;;;17.93;57.84;100181.22;5022941;28;20434;-40
2023/10/25 01:23:25;;;;;;;1.75;1.20;;;;;;;17.93;57.98;100181.22;5022680;28;20123;-41
2023/10/25 01:25:52;;;;;;;2.40;1.50;;;;;;;17.92;58.50;100182.19;5018786;28;20041;-41
2023/10/25 01:28:18;;;;;;;2.90;1.25;;;;;;;17.92;57.90;100182.19;5019515;28;20426;-41
2023/10/25 01:30:45;;;;;;;2.13;1.23;;;;;;;17.91;58.19;100180.53;5017462;28;20128;-41
2023/10/25 01:33:12;;;;;;;4.35;1.75;;;;;;;17.90;58.17;100176.19;5015650;28;20061;-41
2023/10/25 01:35:39;;;;;;;2.00;1.08;;;;;;;17.90;58.45;100172.66;5022366;28;20323;-40
2023/10/25 01:38:06;;;;;;;4.47;1.85;;;;;;;17.89;58.10;100168.28;5020738;28;20045;-41
2023/10/25 01:40:32;;;;;;;2.35;1.60;;;;;;;17.88;58.30;100164.75;5024517;28;20084;-40
2023/10/25 01:42:59;;;;;;;2.72;1.48;;;;;;;17.88;58.10;100158.56;5020345;28;20053;-41
2023/10/25 01:45:27;;;;;;;2.58;1.50;;;;;;;17.88;58.41;100161.25;5019280;28;20448;-40
2023/10/25 01:47:54;;;;;;;1.73;1.10;;;;;;;17.86;58.52;100156.06;5023598;28;20411;-41
2023/10/25 01:50:21;;;;;;;2.80;1.40;;;;;;;17.86;58.38;100152.56;5017201;28;20062;-40
2023/10/25 01:52:47;;;;;;;3.20;1.42;;;;;;;17.86;58.06;100157.91;5021222;28;20054;-41
2023/10/25 01:55:14;;;;;;;2.00;1.40;;;;;;;17.85;58.43;100158.91;5020207;28;20049;-40
2023/10/25 01:57:42;;;;;;;3.58;1.60;;;;;;;17.84;57.88;100163.44;5018430;28;20144;-40
2023/10/25 02:00:09;;;;;;;3.30;1.45;;;;;;;17.84;58.48;100162.59;5018496;28;20052;-41
2023/10/25 02:02:36;;;;;;;2.53;1.33;;;;;;;17.84;58.38;100157.22;5019218;28;20045;-41
2023/10/25 02:05:03;;;;;;;2.17;1.40;;;;;;;17.83;58.45;100155.56;5021351;28;20056;-40
2023/10/25 02:07:30;;;;;;;2.28;1.30;;;;;;;17.84;58.60;100151.88;5021876;28;20053;-40
2023/10/25 02:09:56;;;;;;;2.67;1.40;;;;;;;17.82;58.45;100144.00;5023923;28;20077;-40
2023/10/25 02:12:23;;;;;;;2.45;1.48;;;;;;;17.82;58.11;100133.28;5036991;28;20062;-40
2023/10/25 02:14:50;;;;;;;3.58;1.58;;;;;;;17.81;58.06;100130.75;5018351;28;20134;-41
2023/10/25 02:17:17;;;;;;;2.70;1.13;;;;;;;17.81;58.25;100130.75;5019464;28;20096;-40
2023/10/25 02:19:45;;;;;;;2.70;1.30;;;;;;;17.79;58.36;100120.22;5017660;28;20057;-40
2023/10/25 02:22:12;;;;;;;1.77;1.10;;;;;;;17.81;58.27;100125.41;5023723;28;20115;-40
2023/10/25 02:24:39;;;;;;;1.52;1.15;;;;;;;17.80;58.63;100111.16;5017240;28;20449;-41
2023/10/25 02:27:05;;;;;;;2.95;1.15;;;;;;;17.79;58.49;100112.19;5020026;28;20076;-40
2023/10/25 02:29:32;;;;;;;2.03;1.48;;;;;;;17.78;58.62;100115.88;5018066;28;20072;-40
2023/10/25 02:31:58;;;;;;;3.63;1.48;;;;;;;17.78;58.76;100113.19;5020224;28;20046;-40
2023/10/25 02:34:25;;;;;;;1.30;1.10;;;;;;;17.79;58.39;100114.03;5016570;28;20384;-40
2023/10/25 02:36:52;;;;;;;1.55;1.13;;;;;;;17.78;58.67;100109.69;5017575;28;20085;-40
2023/10/25 02:39:18;;;;;;;3.30;1.40;;;;;;;17.76;58.33;100116.03;5028822;28;20045;-40
2023/10/25 02:41:45;;;;;;;2.28;1.20;;;;;;;17.77;58.17;100119.56;5021908;28;20108;-41
2023/10/25 02:44:11;;;;;;;1.90;1.20;;;;;;;17.75;58.56;100119.72;5028683;28;20173;-41
2023/10/25 02:46:38;;;;;;;2.40;1.25;;;;;;;17.76;58.31;100117.88;5021747;28;20053;-40
2023/10/25 02:49:05;;;;;;;2.92;1.15;;;;;;;17.74;58.47;100118.06;5024352;28;20112;-40
2023/10/25 02:51:32;;;;;;;2.38;1.45;;;;;;;17.74;58.65;100118.06;5023188;28;20429;-40
2023/10/25 02:53:58;;;;;;;4.10;1.30;;;;;;;17.74;58.45;100109.16;5020873;28;20046;-41
2023/10/25 02:56:25;;;;;;;3.95;1.30;;;;;;;17.73;58.29;100119.03;5022561;28;20442;-40
2023/10/25 02:58:51;;;;;;;3.10;1.40;;;;;;;17.73;58.03;100113.66;5019710;28;20050;-40
2023/10/25 03:01:20;;;;;;;1.80;1.17;;;;;;;17.71;58.17;100104.94;5024898;28;20053;-40
2023/10/25 03:03:47;;;;;;;1.85;1.27;;;;;;;17.71;58.74;100104.94;5024082;28;20042;-41
2023/10/25 03:06:14;;;;;;;1.25;1.00;;;;;;;17.71;58.47;100107.63;5022121;28;20160;-41
2023/10/25 03:08:41;;;;;;;1.45;1.08;;;;;;;17.71;58.59;100104.13;5023333;28;20081;-41
2023/10/25 03:11:07;;;;;;;1.75;1.17;;;;;;;17.69;58.45;100101.63;5024041;28;20140;-40
2023/10/25 03:13:34;;;;;;;2.38;1.27;;;;;;;17.70;58.19;100099.78;5026037;28;20092;-40
2023/10/25 03:16:01;;;;;;;4.57;1.23;;;;;;;17.69;58.53;100100.78;5026669;28;20073;-41
2023/10/25 03:18:27;;;;;;;3.05;1.30;;;;;;;17.69;58.22;100095.44;5018467;28;20141;-40
2023/10/25 03:20:54;;;;;;;1.20;1.00;;;;;;;17.69;58.55;100100.78;5019571;28;20372;-40
2023/10/25 03:23:21;;;;;;;3.45;1.40;;;;;;;17.68;58.61;100091.88;5020458;28;20050;-40
2023/10/25 03:25:47;;;;;;;2.75;1.27;;;;;;;17.68;58.67;100093.72;5025776;28;20046;-40
2023/10/25 03:28:14;;;;;;;1.27;1.15;;;;;;;17.67;58.38;100089.38;5024234;28;20073;-40
2023/10/25 03:30:40;;;;;;;1.80;1.15;;;;;;;17.67;58.35;100089.38;5020791;28;20053;-41
2023/10/25 03:33:07;;;;;;;1.52;1.13;;;;;;;17.66;58.25;100083.19;5021745;28;20048;-41
2023/10/25 03:35:34;;;;;;;4.15;1.48;;;;;;;17.67;58.51;100086.69;5020422;28;20046;-41
2023/10/25 03:38:00;;;;;;;2.38;1.35;;;;;;;17.67;58.27;100084.03;5023502;28;20114;-40
2023/10/25 03:40:27;;;;;;;2.25;0.95;;;;;;;17.66;58.44;100077.00;5021423;28;20046;-40
2023/10/25 03:42:53;;;;;;;1.83;1.02;;;;;;;17.66;58.58;100068.97;5022291;28;20055;-40
2023/10/25 03:45:20;;;;;;;2.92;1.27;;;;;;;17.64;58.38;100069.09;5020292;28;20059;-40
2023/10/25 03:47:47;;;;;;;1.67;1.10;;;;;;;17.65;58.68;100062.75;5024639;28;20053;-40
2023/10/25 03:50:13;;;;;;;3.05;1.00;;;;;;;17.65;58.55;100059.25;5024361;28;20354;-40
2023/10/25 03:52:40;;;;;;;2.17;1.20;;;;;;;17.64;58.54;100060.25;5021763;28;20057;-40
2023/10/25 03:55:07;;;;;;;2.42;1.40;;;;;;;17.64;58.58;100060.25;5018904;28;20100;-41
2023/10/25 03:57:34;;;;;;;2.25;1.25;;;;;;;17.64;58.67;100070.97;5018801;28;20096;-40
2023/10/25 04:00:00;;;;;;;2.17;1.40;;;;;;;17.63;58.38;100070.13;5037853;28;20085;-40
2023/10/25 04:02:28;;;;;;;2.33;1.30;;;;;;;17.62;58.60;100071.13;5024245;28;20325;-40
2023/10/25 04:04:54;;;;;;;1.88;1.05;;;;;;;17.63;58.60;100063.94;5027682;28;20100;-40
2023/10/25 04:07:21;;;;;;;1.55;1.10;;;;;;;17.63;58.67;100055.91;5025648;28;20476;-40
2023/10/25 04:09:48;;;;;;;1.90;1.17;;;;;;;17.62;58.33;100059.59;5025635;28;20454;-40
2023/10/25 04:12:14;;;;;;;3.30;1.60;;;;;;;17.60;58.75;100053.53;5021232;28;20434;-41
2023/10/25 04:14:44;;;;;;;2.05;1.17;;;;;;;17.59;58.12;100051.88;5023796;28;20054;-40
2023/10/25 04:17:12;;;;;;;3.03;1.20;;;;;;;17.59;58.35;100047.34;5022494;28;20053;-40
2023/10/25 04:19:40;;;;;;;3.03;1.23;;;;;;;17.61;58.65;100047.16;5028163;28;20064;-41
2023/10/25 04:22:07;;;;;;;3.17;1.08;;;;;;;17.59;59.14;100036.63;5023611;28;20089;-40
2023/10/25 04:24:34;;;;;;;1.95;1.10;;;;;;;17.60;58.38;100029.44;5024053;28;20084;-40
2023/10/25 04:27:01;;;;;;;1.88;1.23;;;;;;;17.57;58.20;100027.94;5020925;28;20408;-40
2023/10/25 04:29:28;;;;;;;5.32;1.63;;;;;;;17.58;58.55;100020.75;5027111;28;20046;-40
2023/10/25 04:31:56;;;;;;;2.53;1.15;;;;;;;17.58;58.55;100026.94;5024885;28;20454;-40
2023/10/25 04:34:22;;;;;;;2.83;1.50;;;;;;;17.58;58.63;100023.41;5021028;28;20466;-40
2023/10/25 04:36:49;;;;;;;2.28;1.40;;;;;;;17.57;58.27;100022.59;5025293;28;20405;-40
2023/10/25 04:39:16;;;;;;;2.65;1.30;;;;;;;17.58;58.86;100018.06;5027423;28;20099;-40
2023/10/25 04:41:42;;;;;;;3.72;1.55;;;;;;;17.58;58.53;100020.75;5027906;28;20060;-41
2023/10/25 04:44:09;;;;;;;3.25;1.40;;;;;;;17.58;58.07;100013.53;5027300;28;20056;-40
2023/10/25 04:46:36;;;;;;;2.33;1.48;;;;;;;17.58;58.28;100021.56;5024816;28;20108;-40
2023/10/25 04:49:03;;;;;;;3.90;1.40;;;;;;;17.58;58.51;100013.53;5021416;28;20053;-40
2023/10/25 04:51:29;;;;;;;2.22;1.33;;;;;;;17.58;58.50;100010.84;5023628;28;20052;-40
2023/10/25 04:53:56;;;;;;;3.25;1.60;;;;;;;17.58;58.59;100002.81;5028390;28;20112;-40
2023/10/25 04:56:23;;;;;;;3.90;1.88;;;;;;;17.59;58.58;100003.66;5024247;28;20116;-41
2023/10/25 04:58:50;;;;;;;4.90;1.50;;;;;;;17.59;58.64;100001.81;5023541;28;20143;-41
2023/10/25 05:01:16;;;;;;;4.25;1.42;;;;;;;17.60;58.41;100002.63;5020844;28;20087;-40
2023/10/25 05:03:44;;;;;;;2.70;1.50;;;;;;;17.59;58.36;100003.66;5021063;28;20057;-40
2023/10/25 05:06:12;;;;;;;3.97;1.52;;;;;;;17.58;58.36;100000.13;5020707;28;20053;-41
2023/10/25 05:08:39;;;;;;;2.80;1.45;;;;;;;17.59;58.35;99999.13;5020845;28;20149;-40
2023/10/25 05:11:07;;;;;;;6.38;1.33;;;;;;;17.59;58.38;99987.56;5022784;28;20158;-41
2023/10/25 05:13:34;;;;;;;2.05;1.27;;;;;;;17.60;58.21;99992.75;5027088;28;20045;-40
2023/10/25 05:16:01;;;;;;;2.65;1.40;;;;;;;17.59;58.28;99992.94;5023802;28;20375;-40
2023/10/25 05:18:28;;;;;;;3.00;1.38;;;;;;;17.59;58.43;99991.09;5026154;28;20128;-40
2023/10/25 05:21:03;;;;;;;2.55;1.20;;;;;;;17.58;58.52;99989.41;5026684;28;20057;-40
2023/10/25 05:23:31;;;;;;;2.38;1.30;;;;;;;17.59;58.48;99984.91;5019520;28;20045;-40
2023/10/25 05:25:59;;;;;;;3.38;1.55;;;;;;;17.59;58.54;99974.19;5025525;28;20057;-40
2023/10/25 05:28:28;;;;;;;2.55;1.52;;;;;;;17.58;58.41;99981.38;5019837;28;20045;-40
2023/10/25 05:30:59;;;;;;;2.15;1.35;;;;;;;17.58;58.55;99976.03;5019251;28;20069;-41
2023/10/25 05:33:27;;;;;;;3.08;1.35;;;;;;;17.57;58.53;99969.00;5019790;28;20051;-40
2023/10/25 05:35:53;;;;;;;2.63;1.35;;;;;;;17.58;58.38;99976.03;5019956;28;20384;-40
2023/10/25 05:38:20;;;;;;;3.35;1.38;;;;;;;17.58;58.85;99972.50;5021096;28;20053;-40
2023/10/25 05:40:50;;;;;;;4.13;1.55;;;;;;;17.57;58.49;99969.00;5019962;28;20073;-40
2023/10/25 05:43:22;;;;;;;3.53;1.58;;;;;;;17.57;58.15;99971.69;5023904;28;20046;-40
2023/10/25 05:45:49;;;;;;;2.72;1.35;;;;;;;17.58;58.33;99964.47;5020100;28;20429;-40
2023/10/25 05:48:16;;;;;;;3.67;1.90;;;;;;;17.56;58.57;99961.94;5024694;28;20053;-40
2023/10/25 05:50:44;;;;;;;2.97;1.30;;;;;;;17.57;58.73;99963.66;5023836;28;20130;-40
2023/10/25 05:53:13;;;;;;;3.55;1.27;;;;;;;17.58;58.35;99964.47;5023426;28;20108;-40
2023/10/25 05:55:41;;;;;;;2.97;1.40;;;;;;;17.57;58.41;99965.47;5017693;28;20053;-40
2023/10/25 05:58:08;;;;;;;4.78;1.40;;;;;;;17.57;58.56;99963.66;5018217;28;20050;-40
2023/10/25 06:00:35;;;;;;;4.93;2.25;;;;;;;17.56;58.69;99959.25;5022708;28;20437;-40
2023/10/25 06:03:02;;;;;;;4.15;1.40;;;;;;;17.57;58.70;99966.31;5019765;28;20369;-40
2023/10/25 06:05:36;;;;;;;2.92;1.40;;;;;;;17.57;58.45;99958.28;5019964;28;20076;-40
2023/10/25 06:08:03;;;;;;;2.97;1.27;;;;;;;17.56;58.67;99959.25;5023143;28;20058;-40
2023/10/25 06:10:30;;;;;;;3.47;1.20;;;;;;;17.57;58.29;99957.41;5022358;28;20046;-41
2023/10/25 06:12:56;;;;;;;3.05;1.75;;;;;;;17.57;58.73;99941.34;5023218;28;20057;-40
2023/10/25 06:15:23;;;;;;;1.83;1.40;;;;;;;17.56;58.56;99932.47;5026017;28;20046;-40
2023/10/25 06:17:51;;;;;;;2.90;1.52;;;;;;;17.56;58.67;99937.84;5027393;28;20049;-41
2023/10/25 06:20:20;;;;;;;4.43;1.30;;;;;;;17.57;58.61;99925.25;5030652;28;20115;-41
2023/10/25 06:22:47;;;;;;;2.17;1.20;;;;;;;17.57;58.35;99923.44;5024558;28;20052;-40
2023/10/25 06:25:13;;;;;;;1.73;1.45;;;;;;;17.57;58.66;99933.31;5025105;28;20140;-40
2023/10/25 06:27:40;;;;;;;3.03;1.40;;;;;;;17.57;58.68;99930.63;5025104;28;20077;-40
2023/10/25 06:30:07;;;;;;;2.53;1.60;;;;;;;17.57;58.47;99936.84;5027718;28;20058;-41
2023/10/25 06:32:34;;;;;;;1.20;1.10;;;;;;;17.58;58.52;99926.97;5029366;28;20045;-40
2023/10/25 06:35:01;;;;;;;3.80;1.52;;;;;;;17.57;58.51;99936.84;5025998;28;20116;-40
2023/10/25 06:37:28;;;;;;;3.33;1.27;;;;;;;17.57;58.40;99931.50;5027090;28;20353;-41
2023/10/25 06:39:55;;;;;;;3.03;1.40;;;;;;;17.57;58.60;99928.81;5029061;28;20135;-40
2023/10/25 06:42:22;;;;;;;4.47;1.52;;;;;;;17.56;58.44;99921.75;5029245;28;20043;-40
2023/10/25 06:44:51;;;;;;;2.33;1.38;;;;;;;17.58;58.24;99927.78;5028827;28;20567;-41
2023/10/25 06:47:17;;;;;;;2.85;1.48;;;;;;;17.58;58.14;99921.59;5025486;28;20050;-40
2023/10/25 06:49:44;;;;;;;4.72;1.45;;;;;;;17.58;58.29;99919.75;5028476;28;20122;-40
2023/10/25 06:52:11;;;;;;;2.70;1.70;;;;;;;17.58;58.43;99921.59;5033717;28;20078;-41
2023/10/25 06:54:38;;;;;;;2.72;1.33;;;;;;;17.58;58.72;99905.53;5034490;28;20139;-40
2023/10/25 06:57:05;;;;;;;3.60;1.40;;;;;;;17.57;58.85;99912.72;5026423;28;20382;-40
2023/10/25 06:59:32;;;;;;;3.25;1.60;;;;;;;17.58;58.27;99905.53;5027233;28;20187;-40
2023/10/25 07:02:43;;;;;;;4.32;1.75;;;;;;;17.56;58.95;99903.00;5027119;28;20045;-40
2023/10/25 07:05:12;;;;;;;2.55;1.42;;;;;;;17.58;58.96;99898.31;5026776;28;20049;-41
2023/10/25 07:07:41;;;;;;;3.80;1.88;;;;;;;17.59;58.94;99902.66;5023728;28;20503;-40
2023/10/25 07:10:08;;;;;;;3.13;1.42;;;;;;;17.59;58.58;99896.47;5029988;28;20052;-40
2023/10/25 07:12:35;;;;;;;2.58;1.63;;;;;;;17.59;58.83;99897.31;5028504;28;20756;-41
2023/10/25 07:15:03;;;;;;;4.10;2.15;;;;;;;17.59;58.80;99886.59;5029679;28;20124;-41
2023/10/25 07:17:29;;;;;;;5.30;1.65;;;;;;;17.60;59.04;99884.72;5025930;28;20056;-40
2023/10/25 07:19:58;;;;;;;5.72;1.80;;;;;;;17.59;59.05;99886.59;5024495;28;20126;-40
2023/10/25 07:22:28;;;;;;;3.90;1.63;;;;;;;17.60;58.83;99879.38;5026452;28;20041;-40
2023/10/25 07:24:58;;;;;;;5.63;2.00;;;;;;;17.60;58.89;99880.22;5027731;28;20049;-40
2023/10/25 07:27:25;;;;;;;7.82;2.22;;;;;;;17.60;59.00;99877.53;5028535;28;20042;-40
2023/10/25 07:29:51;;;;;;;2.90;1.90;;;;;;;17.60;59.12;99882.88;5025229;28;20134;-41
2023/10/25 07:32:18;;;;;;;5.05;2.28;;;;;;;17.59;59.09;99873.19;5021913;28;20448;-40
2023/10/25 07:34:45;;;;;;;5.88;2.13;;;;;;;17.61;59.18;99873.00;5019969;28;20041;-40
2023/10/25 07:37:12;;;;;;;5.55;2.53;;;;;;;17.60;59.07;99868.66;5023809;28;20433;-41
2023/10/25 07:39:40;;;;;;;7.63;2.25;;;;;;;17.59;58.87;99865.16;5025956;28;20065;-40
2023/10/25 07:42:07;;;;;;;7.05;2.45;;;;;;;17.59;58.99;99862.47;5025623;28;20049;-41
2023/10/25 07:44:34;;;;;;;7.60;2.45;;;;;;;17.61;59.53;99859.59;5021652;28;20058;-41
2023/10/25 07:47:01;;;;;;;2.95;1.88;;;;;;;17.60;59.06;99856.09;5024556;28;20372;-41
2023/10/25 07:49:28;;;;;;;6.38;3.17;;;;;;;17.61;59.03;99856.91;5024278;28;20045;-40
2023/10/25 07:51:54;;;;;;;4.50;2.42;;;;;;;17.61;59.00;99852.44;5023421;28;20046;-40
2023/10/25 07:54:22;;;;;;;5.28;2.33;;;;;;;17.63;59.22;99849.56;5025148;28;20095;-40
2023/10/25 07:56:48;;;;;;;5.70;1.85;;;;;;;17.62;58.85;99847.91;5028546;28;20122;-40
2023/10/25 07:59:36;;;;;;;6.32;1.83;;;;;;;17.63;59.11;99839.66;5025065;28;20049;-40
2023/10/25 08:02:02;;;;;;;4.85;1.70;;;;;;;17.63;59.04;99836.16;5021734;28;20147;-40
2023/10/25 08:04:29;;;;;;;6.43;2.15;;;;;;;17.64;59.21;99841.34;5016689;28;20081;-40
2023/10/25 08:06:56;;;;;;;5.93;2.17;;;;;;;17.63;58.99;99844.19;5017545;28;20140;-40
2023/10/25 08:09:22;;;;;;;3.60;2.00;;;;;;;17.64;58.95;99845.84;5021224;28;20041;-40
2023/10/25 08:11:49;;;;;;;6.28;2.22;;;;;;;17.63;58.97;99834.31;5017067;28;20354;-40
2023/10/25 08:14:16;;;;;;;6.07;2.13;;;;;;;17.63;59.43;99837.00;5019862;28;20037;-40
2023/10/25 08:16:43;;;;;;;4.13;2.30;;;;;;;17.63;59.08;99834.31;5020537;28;20126;-40
2023/10/25 08:19:09;;;;;;;4.63;2.40;;;;;;;17.63;59.27;99830.81;5016178;28;20392;-41
2023/10/25 08:21:36;;;;;;;4.80;2.45;;;;;;;17.63;59.11;99828.94;5019117;28;20072;-40
2023/10/25 08:24:07;;;;;;;4.63;2.08;;;;;;;17.63;58.89;99828.94;5020253;28;20099;-40
2023/10/25 08:26:39;;;;;;;3.63;2.00;;;;;;;17.63;58.76;99828.13;5020823;28;20099;-41
2023/10/25 08:29:06;;;;;;;4.68;1.95;;;;;;;17.64;59.06;99827.09;5016754;28;20049;-40
2023/10/25 08:31:33;;;;;;;2.85;1.60;;;;;;;17.63;58.89;99828.94;5021098;28;20051;-40
2023/10/25 08:34:00;;;;;;;5.88;2.05;;;;;;;17.63;59.13;99831.63;5023260;28;20046;-40
2023/10/25 08:36:34;;;;;;;6.25;2.13;;;;;;;17.64;58.93;99827.09;5017986;28;20524;-40
2023/10/25 08:39:00;;;;;;;5.97;2.47;;;;;;;17.63;58.61;99823.59;5019052;28;20054;-40
2023/10/25 08:41:28;;;;;;;3.63;1.55;;;;;;;17.64;59.03;99819.06;5019302;28;20441;-41
2023/10/25 08:43:54;;;;;;;3.58;1.90;;;;;;;17.63;58.63;99818.25;5019895;28;20046;-41
2023/10/25 08:46:22;;;;;;;4.40;1.70;;;;;;;17.64;58.87;99822.56;5022316;28;20072;-40
2023/10/25 08:48:50;;;;;;;8.20;2.10;;;;;;;17.64;59.00;99814.53;5019444;28;20049;-41
2023/10/25 08:51:17;;;;;;;3.88;2.03;;;;;;;17.64;59.16;99819.06;5025550;28;20096;-41
2023/10/25 08:53:45;;;;;;;3.33;2.33;;;;;;;17.65;58.78;99816.22;5025133;28;20053;-40
2023/10/25 08:56:14;;;;;;;4.22;2.00;;;;;;;17.64;58.83;99822.56;5024654;28;20053;-41
2023/10/25 08:58:41;;;;;;;3.55;1.75;;;;;;;17.64;58.75;99819.06;5022857;28;20134;-41
2023/10/25 09:01:07;;;;;;;3.33;1.85;;;;;;;17.65;58.68;99818.91;5018315;28;20099;-40
2023/10/25 09:03:39;;;;;;;4.18;1.92;;;;;;;17.65;58.85;99816.22;5023916;28;20784;-40
2023/10/25 09:06:07;;;;;;;4.18;1.73;;;;;;;17.65;58.58;99807.34;5022896;28;20437;-40
2023/10/25 09:08:35;;;;;;;5.22;1.85;;;;;;;17.65;58.94;99804.69;5025199;28;20049;-40
2023/10/25 09:11:08;;;;;;;2.17;1.55;;;;;;;17.65;58.88;99802.84;5021754;28;20160;-40
2023/10/25 09:13:37;;;;;;;4.57;2.00;;;;;;;17.65;58.66;99805.50;5024080;28;20115;-40
2023/10/25 09:16:07;;;;;;;4.88;2.40;;;;;;;17.66;58.56;99796.44;5020066;28;20112;-41
2023/10/25 09:18:35;;;;;;;4.93;2.25;;;;;;;17.66;58.74;99795.63;5018582;28;20342;-40
2023/10/25 09:21:04;;;;;;;3.47;2.00;;;;;;;17.66;58.50;99791.09;5018563;28;20441;-40
2023/10/25 09:23:38;;;;;;;4.75;2.08;;;;;;;17.66;58.98;99791.09;5020517;28;20421;-41
2023/10/25 09:26:16;;;;;;;4.28;1.63;;;;;;;17.66;59.11;99788.41;5021799;28;20052;-40
2023/10/25 09:28:47;;;;;;;2.60;1.70;;;;;;;17.66;58.74;99777.69;5019773;28;20439;-40
2023/10/25 09:31:26;;;;;;;3.35;1.73;;;;;;;17.66;58.66;99779.53;5019541;28;20508;-40
2023/10/25 09:33:57;;;;;;;3.15;1.70;;;;;;;17.67;58.52;99770.50;5026071;28;20388;-41
2023/10/25 09:36:24;;;;;;;2.97;1.90;;;;;;;17.66;58.78;99775.00;5018990;28;20049;-40
2023/10/25 09:38:52;;;;;;;3.35;1.90;;;;;;;17.66;58.90;99775.00;5019858;28;20119;-40
2023/10/25 09:41:20;;;;;;;4.68;1.77;;;;;;;17.66;59.00;99771.50;5025476;28;20053;-41
2023/10/25 09:43:49;;;;;;;3.75;1.88;;;;;;;17.65;58.93;99761.81;5023856;28;20394;-40
2023/10/25 09:46:20;;;;;;;2.55;1.73;;;;;;;17.64;58.97;99763.63;5018712;28;20049;-40
2023/10/25 09:48:55;;;;;;;3.55;1.67;;;;;;;17.64;58.69;99760.94;5019969;28;20042;-40
2023/10/25 09:51:44;;;;;;;2.28;1.40;;;;;;;17.64;58.86;99760.13;5020122;28;20095;-41
2023/10/25 09:54:12;;;;;;;4.07;2.22;;;;;;;17.64;58.99;99754.75;5020524;28;20691;-40
2023/10/25 09:56:40;;;;;;;4.03;1.60;;;;;;;17.65;58.79;99751.09;5018982;28;20088;-40
2023/10/25 09:59:10;;;;;;;5.65;1.65;;;;;;;17.63;58.56;99747.75;5024378;28;20045;-40
2023/10/25 10:01:39;;;;;;;3.60;1.42;;;;;;;17.64;58.74;99744.03;5023205;28;20356;-40
2023/10/25 10:04:28;;;;;;;3.40;1.63;;;;;;;17.62;58.86;99741.53;5022222;28;20133;-41
2023/10/25 10:07:16;;;;;;;2.75;1.52;;;;;;;17.62;58.95;99730.81;5019376;28;20053;-40
2023/10/25 10:10:01;;;;;;;3.53;1.83;;;;;;;17.63;59.21;99726.31;5026589;28;20053;-40
2023/10/25 10:12:27;;;;;;;1.90;1.52;;;;;;;17.62;58.90;99725.47;5021328;28;20117;-40
2023/10/25 10:14:54;;;;;;;2.75;1.30;;;;;;;17.62;58.95;99721.97;5022121;28;20350;-40
2023/10/25 10:17:21;;;;;;;3.33;1.70;;;;;;;17.62;59.19;99719.28;5018029;28;20045;-40
2023/10/25 10:19:50;;;;;;;2.83;1.45;;;;;;;17.60;59.12;99700.69;5020765;28;20442;-40
2023/10/25 10:22:18;;;;;;;2.33;1.42;;;;;;;17.61;58.92;99697.00;5019997;28;20322;-40
2023/10/25 10:24:53;;;;;;;2.63;1.63;;;;;;;17.60;59.17;99700.69;5019709;28;20038;-40
2023/10/25 10:27:25;;;;;;;3.30;1.63;;;;;;;17.60;59.23;99711.41;5024243;28;20056;-40
2023/10/25 10:29:52;;;;;;;2.22;1.50;;;;;;;17.60;59.16;99715.94;5022125;28;20434;-41
2023/10/25 10:32:19;;;;;;;4.63;1.83;;;;;;;17.61;59.19;99713.09;5024450;28;20124;-40
2023/10/25 10:34:47;;;;;;;2.72;1.42;;;;;;;17.60;59.22;99706.03;5019914;28;20049;-40
2023/10/25 10:37:22;;;;;;;2.58;1.38;;;;;;;17.59;59.06;99704.38;5020988;28;20132;-40
2023/10/25 10:39:57;;;;;;;3.65;1.80;;;;;;;17.61;59.01;99701.50;5018211;28;20120;-40
2023/10/25 10:42:32;;;;;;;1.98;1.63;;;;;;;17.62;59.19;99698.69;5017014;28;20042;-40
2023/10/25 10:45:00;;;;;;;5.03;1.70;;;;;;;17.62;59.24;99687.97;5019053;28;20049;-40
2023/10/25 10:47:55;;;;;;;2.92;1.45;;;;;;;17.59;59.22;99696.34;5018108;28;20053;-40
2023/10/25 10:50:23;;;;;;;4.10;1.75;;;;;;;17.62;58.96;99687.13;5019049;28;20333;-40
2023/10/25 10:52:52;;;;;;;1.88;1.30;;;;;;;17.61;59.09;99680.06;5020311;28;20072;-40
2023/10/25 10:55:20;;;;;;;2.40;1.30;;;;;;;17.61;59.47;99678.25;5022068;28;20468;-40
2023/10/25 10:57:48;;;;;;;3.50;1.63;;;;;;;17.61;59.07;99675.59;5020621;28;20069;-40
2023/10/25 11:00:34;;;;;;;2.35;1.75;;;;;;;17.61;58.58;99661.31;5023846;28;20053;-40
2023/10/25 11:03:02;;;;;;;2.70;1.60;;;;;;;17.60;59.11;99654.31;5019688;28;20125;-40
2023/10/25 11:05:35;;;;;;;3.53;2.05;;;;;;;17.60;59.31;99651.63;5032040;28;20045;-40
2023/10/25 11:08:02;;;;;;;2.25;1.40;;;;;;;17.59;59.31;99640.09;5030480;28;20061;-40
2023/10/25 11:10:29;;;;;;;2.35;1.50;;;;;;;17.60;59.23;99651.63;5026078;28;20134;-40
2023/10/25 11:12:58;;;;;;;2.40;1.50;;;;;;;17.59;59.34;99650.78;5022614;28;20099;-40
2023/10/25 11:15:28;;;;;;;3.78;1.90;;;;;;;17.58;59.38;99651.81;5020087;28;20107;-40
2023/10/25 11:17:55;;;;;;;2.72;1.58;;;;;;;17.60;59.45;99648.94;5023699;28;20811;-42
2023/10/25 11:20:22;;;;;;;1.95;1.20;;;;;;;17.60;59.02;99643.59;5027928;28;20129;-39
2023/10/25 11:22:49;;;;;;;2.85;2.00;;;;;;;17.59;59.24;99639.25;5023610;28;20139;-40
2023/10/25 11:25:22;;;;;;;2.78;1.40;;;;;;;17.59;58.87;99636.56;5026592;28;20099;-40
2023/10/25 11:27:49;;;;;;;1.55;1.20;;;;;;;17.59;59.13;99631.22;5023432;28;20127;-40
2023/10/25 11:30:17;;;;;;;2.28;1.50;;;;;;;17.58;59.20;99622.34;5023042;28;20050;-40
2023/10/25 11:32:44;;;;;;;2.80;1.58;;;;;;;17.58;59.03;99617.00;5020633;28;20503;-40
2023/10/25 11:35:25;;;;;;;2.80;1.60;;;;;;;17.58;59.25;99610.81;5024039;28;20041;-39